Time;durP1;ratioP1;P1;durP2;ratioP2;P2;SDS_P1;SDS_P2;PMS_P1;PMS_P2;Temp;Humidity;BMP_temperature;BMP_pressure;BME280_temperature;BME280_humidity;BME280_pressure;Samples;Min_cycle;Max_cycle;Signal;HPM_P1;HPM_P2
2022/03/10 00:01:27;;;;;;;;;28.75;26.25;;;;;12.63;46.11;101249.00;5056646;28;45642;-79
2022/03/10 00:03:52;;;;;;;;;30.50;26.00;;;;;12.67;46.33;101256.56;5056590;28;45546;-80
2022/03/10 00:06:18;;;;;;;;;28.75;25.25;;;;;12.66;46.29;101259.28;5056776;28;45775;-79
2022/03/10 00:12:05;;;;;;;;;31.25;27.75;;;;;12.60;46.24;101250.88;5056604;28;45649;-80
2022/03/10 00:14:30;;;;;;;;;29.25;25.25;;;;;12.58;46.44;101254.53;5056351;28;46467;-77
2022/03/10 00:16:59;;;;;;;;;35.25;29.75;;;;;12.55;46.39;101258.25;5055459;28;46309;-81
2022/03/10 00:19:24;;;;;;;;;35.50;32.50;;;;;12.54;46.18;101250.44;5055317;28;45939;-81
2022/03/10 00:21:51;;;;;;;;;30.25;27.50;;;;;12.53;46.51;101254.88;5056609;28;45538;-80
2022/03/10 00:27:38;;;;;;;;;26.25;24.75;;;;;12.48;46.50;101258.75;5056065;28;46233;-79
2022/03/10 00:30:04;;;;;;;;;34.00;28.25;;;;;12.46;46.50;101253.63;5056132;28;45453;-81
2022/03/10 00:32:30;;;;;;;;;26.50;24.75;;;;;12.45;46.60;101257.19;5055037;28;45749;-81
2022/03/10 00:34:55;;;;;;;;;32.00;29.00;;;;;12.37;46.27;101248.13;5056087;28;46317;-79
2022/03/10 00:37:20;;;;;;;;;36.75;31.00;;;;;12.42;46.63;101254.75;5056203;28;46285;-78
2022/03/10 00:39:46;;;;;;;;;29.75;27.75;;;;;12.41;46.39;101258.34;5055517;28;45622;-80
2022/03/10 00:42:11;;;;;;;;;32.00;28.50;;;;;12.36;46.45;101257.00;5056407;28;45561;-80
2022/03/10 00:44:36;;;;;;;;;29.00;27.75;;;;;12.37;46.78;101258.66;5055678;28;47404;-77
2022/03/10 00:47:02;;;;;;;;;31.25;28.75;;;;;12.34;46.79;101264.97;5055369;28;47053;-80
2022/03/10 00:49:27;;;;;;;;;35.25;30.50;;;;;12.31;46.66;101259.91;5055851;28;45525;-80
2022/03/10 00:51:53;;;;;;;;;27.50;26.50;;;;;12.29;46.82;101256.56;5055045;28;45588;-77
2022/03/10 00:57:40;;;;;;;;;36.50;32.00;;;;;12.27;46.70;101265.47;5054144;28;46139;-77
2022/03/10 01:00:07;;;;;;;;;33.25;29.25;;;;;12.25;46.97;101257.72;5056112;28;45554;-78
2022/03/10 01:02:34;;;;;;;;;31.50;30.00;;;;;12.25;46.83;101262.97;5055792;28;45766;-77
2022/03/10 01:04:59;;;;;;;;;34.75;29.75;;;;;12.21;47.00;101258.84;5055151;28;47306;-80
2022/03/10 01:07:25;;;;;;;;;40.25;33.75;;;;;12.20;46.95;101259.78;5055621;28;45627;-79
2022/03/10 01:09:51;;;;;;;;;35.75;32.00;;;;;12.18;47.01;101261.69;5055753;28;45601;-80
2022/03/10 01:12:17;;;;;;;;;33.75;30.75;;;;;12.18;47.15;101265.16;5055601;28;45614;-76
2022/03/10 01:14:43;;;;;;;;;33.00;28.50;;;;;12.15;47.28;101265.34;5054741;28;47502;-77
2022/03/10 01:17:08;;;;;;;;;37.25;34.00;;;;;12.13;47.34;101263.78;5055349;28;45578;-78
2022/03/10 01:19:34;;;;;;;;;40.25;33.00;;;;;12.12;47.37;101259.47;5055140;28;45727;-78
2022/03/10 01:21:59;;;;;;;;;36.00;32.50;;;;;12.09;47.22;101259.69;5055564;28;45580;-78
2022/03/10 01:27:47;;;;;;;;;35.00;28.75;;;;;12.02;47.28;101258.41;5055057;28;45776;-74
2022/03/10 01:30:13;;;;;;;;;39.00;35.75;;;;;12.03;47.36;101257.47;5054874;28;45733;-77
2022/03/10 01:32:39;;;;;;;;;37.00;33.00;;;;;12.03;47.39;101262.72;5054941;28;45565;-77
2022/03/10 01:35:06;;;;;;;;;31.50;28.50;;;;;12.01;47.33;101256.72;5054887;28;46235;-76
2022/03/10 01:37:36;;;;;;;;;34.25;31.75;;;;;11.99;47.23;101266.47;5054648;28;46489;-77
2022/03/10 01:40:03;;;;;;;;;33.00;30.75;;;;;11.94;47.40;101263.31;5055002;28;45685;-78
2022/03/10 01:42:29;;;;;;;;;36.25;30.75;;;;;11.92;47.36;101266.06;5054907;28;45732;-78
2022/03/10 01:44:55;;;;;;;;;34.75;30.25;;;;;11.89;47.49;101262.78;5054327;28;45670;-76
2022/03/10 01:47:22;;;;;;;;;32.25;28.25;;;;;11.89;47.40;101260.16;5054696;28;46046;-79
2022/03/10 01:49:47;;;;;;;;;36.25;32.00;;;;;11.87;47.41;101254.19;5055093;28;45573;-77
2022/03/10 01:52:14;;;;;;;;;35.00;33.25;;;;;11.81;47.41;101252.81;5054416;28;45695;-78
2022/03/10 01:58:02;;;;;;;;;32.25;30.75;;;;;11.77;47.29;101253.91;5053748;28;45792;-77
2022/03/10 02:00:27;;;;;;;;;35.50;27.75;;;;;11.71;47.39;101247.25;5054670;28;45595;-78
2022/03/10 02:02:54;;;;;;;;;29.00;27.25;;;;;11.72;47.51;101242.84;5054745;28;45782;-78
2022/03/10 02:05:19;;;;;;;;;36.75;33.75;;;;;11.68;47.30;101239.59;5054419;28;47364;-78
2022/03/10 02:10:29;;;;;;;;;36.25;30.50;;;;;11.64;47.40;101239.91;5054300;28;45651;-78
2022/03/10 02:12:56;;;;;;;;;36.00;29.75;;;;;11.58;47.51;101243.78;5054392;28;45736;-77
2022/03/10 02:18:09;;;;;;;;;35.00;29.50;;;;;11.54;47.45;101247.53;5053978;28;45810;-77
2022/03/10 02:20:36;;;;;;;;;32.25;28.00;;;;;11.51;47.46;101242.47;5054360;28;45803;-77
2022/03/10 02:23:02;;;;;;;;;33.00;30.00;;;;;11.50;47.61;101253.91;5054081;28;45579;-78
2022/03/10 02:25:28;;;;;;;;;34.50;27.25;;;;;11.47;47.64;101254.13;5053839;28;46560;-77
2022/03/10 02:27:55;;;;;;;;;37.00;30.00;;;;;11.47;47.63;101243.63;5054177;28;45985;-75
2022/03/10 02:30:22;;;;;;;;;32.00;30.00;;;;;11.44;47.61;101241.22;5054326;28;45831;-77
2022/03/10 02:32:48;;;;;;;;;34.00;28.25;;;;;11.43;47.54;101242.13;5054026;28;45746;-76
2022/03/10 02:35:15;;;;;;;;;41.25;30.25;;;;;11.43;47.65;101246.53;5054168;28;45607;-78
2022/03/10 02:37:41;;;;;;;;;30.25;28.00;;;;;11.42;47.56;101242.22;5053819;28;47280;-77
2022/03/10 02:43:27;;;;;;;;;36.25;30.75;;;;;11.34;47.70;101254.03;5053733;28;45718;-79
2022/03/10 02:45:53;;;;;;;;;35.75;32.25;;;;;11.32;47.80;101252.47;5053935;28;46592;-75
2022/03/10 02:48:18;;;;;;;;;39.00;31.00;;;;;11.31;47.50;101256.03;5053227;28;45720;-79
2022/03/10 02:50:45;;;;;;;;;36.50;31.50;;;;;11.32;47.70;101255.94;5053912;28;45763;-79
2022/03/10 02:53:11;;;;;;;;;37.25;30.00;;;;;11.29;47.65;101255.28;5053692;28;45704;-79
2022/03/10 02:55:40;;;;;;;;;32.25;29.50;;;;;11.30;47.75;101260.44;5053757;28;46715;-77
2022/03/10 02:58:05;;;;;;;;;37.25;31.25;;;;;11.32;47.82;101268.22;5053828;28;46205;-75
2022/03/10 03:00:31;;;;;;;;;32.00;29.75;;;;;11.31;47.97;101263.91;5053029;28;45604;-77
2022/03/10 03:02:57;;;;;;;;;32.75;29.25;;;;;11.30;47.81;101259.59;5053638;28;45701;-73
2022/03/10 03:05:22;;;;;;;;;37.75;31.00;;;;;11.29;47.62;101263.16;5053944;28;45655;-79
2022/03/10 03:07:50;;;;;;;;;33.00;30.00;;;;;11.27;47.77;101255.41;5053992;28;46366;-76
2022/03/10 03:13:37;;;;;;;;;36.75;30.00;;;;;11.21;47.86;101261.03;5053284;28;45687;-76
2022/03/10 03:16:03;;;;;;;;;32.00;29.75;;;;;11.18;47.87;101262.97;5053275;28;46493;-76
2022/03/10 03:18:28;;;;;;;;;36.75;27.25;;;;;11.14;48.06;101266.75;5053309;28;45908;-79
2022/03/10 03:20:53;;;;;;;;;30.50;28.75;;;;;11.13;47.96;101271.16;5053824;28;45729;-77
2022/03/10 03:23:19;;;;;;;;;38.25;32.75;;;;;11.08;47.97;101259.25;5053524;28;45766;-76
2022/03/10 03:25:44;;;;;;;;;29.75;29.75;;;;;11.07;47.99;101271.53;5053144;28;46408;-77
2022/03/10 03:28:10;;;;;;;;;30.00;28.00;;;;;11.04;47.99;101268.25;5053516;28;46067;-77
2022/03/10 03:30:35;;;;;;;;;35.50;31.00;;;;;10.99;47.99;101271.19;5051970;28;45925;-75
2022/03/10 03:33:00;;;;;;;;;34.25;28.75;;;;;10.97;48.18;101265.19;5053232;28;45681;-76
2022/03/10 03:35:26;;;;;;;;;32.25;30.50;;;;;10.96;48.30;101271.34;5053053;28;46650;-76
2022/03/10 03:37:51;;;;;;;;;35.00;30.00;;;;;10.93;48.21;101275.03;5053404;28;46079;-77
2022/03/10 03:43:38;;;;;;;;;31.75;27.50;;;;;10.86;48.32;101270.22;5052931;28;45562;-77
2022/03/10 03:46:03;;;;;;;;;36.50;26.25;;;;;10.83;48.23;101273.06;5053303;28;46713;-78
2022/03/10 03:48:29;;;;;;;;;39.75;32.75;;;;;10.83;48.29;101276.53;5051550;28;48579;-79
2022/03/10 03:50:54;;;;;;;;;37.75;33.00;;;;;10.82;48.41;101271.38;5053296;28;45488;-79
2022/03/10 03:53:20;;;;;;;;;32.75;27.25;;;;;10.81;48.51;101274.91;5052796;28;45912;-80
2022/03/10 03:59:07;;;;;;;;;33.00;29.25;;;;;10.76;48.41;101282.22;5050962;28;46124;-77
2022/03/10 04:01:32;;;;;;;;;29.50;27.25;;;;;10.73;48.52;101283.28;5056680;28;45672;-75
2022/03/10 04:03:58;;;;;;;;;29.25;27.00;;;;;10.73;48.58;101283.28;5056535;28;45679;-76
2022/03/10 04:06:24;;;;;;;;;32.50;30.00;;;;;10.74;48.61;101289.34;5056488;28;46569;-78
2022/03/10 04:08:50;;;;;;;;;33.25;27.25;;;;;10.73;48.55;101287.66;5056232;28;47299;-79
2022/03/10 04:11:17;;;;;;;;;36.25;29.25;;;;;10.73;48.58;101293.75;5056503;28;45519;-75
2022/03/10 04:13:42;;;;;;;;;32.50;26.50;;;;;10.72;48.78;101281.56;5056382;28;45587;-75
2022/03/10 04:16:08;;;;;;;;;36.75;32.25;;;;;10.70;48.58;101282.59;5037890;28;47715;-77
2022/03/10 04:18:33;;;;;;;;;33.75;29.25;;;;;10.69;48.55;101286.19;5056362;28;46271;-78
2022/03/10 04:21:00;;;;;;;;;32.25;28.00;;;;;10.66;48.76;101284.56;5056315;28;45669;-78
2022/03/10 04:23:26;;;;;;;;;40.00;29.75;;;;;10.63;48.84;101282.16;5056204;28;45684;-79
2022/03/10 04:29:14;;;;;;;;;35.75;28.25;;;;;10.62;48.80;101295.34;5056131;28;45576;-78
2022/03/10 04:31:40;;;;;;;;;33.25;32.00;;;;;10.59;48.50;101293.72;5056159;28;45614;-77
2022/03/10 04:34:05;;;;;;;;;34.00;28.50;;;;;10.56;48.94;101300.94;5055957;28;45877;-80
2022/03/10 04:36:31;;;;;;;;;33.00;30.50;;;;;10.53;49.01;101299.31;5055707;28;46338;-77
2022/03/10 04:38:56;;;;;;;;;33.50;28.75;;;;;10.48;48.94;101298.75;5055581;28;46081;-75
2022/03/10 04:41:22;;;;;;;;;35.75;32.00;;;;;10.45;48.98;101298.97;5055898;28;45642;-76
2022/03/10 04:43:47;;;;;;;;;35.00;31.75;;;;;10.46;49.15;101295.41;5056175;28;45641;-77
2022/03/10 04:46:13;;;;;;;;;30.50;27.50;;;;;10.44;49.33;101292.88;5056044;28;45609;-75
2022/03/10 04:48:38;;;;;;;;;33.00;25.25;;;;;10.45;49.21;101296.34;5056146;28;45596;-75
2022/03/10 04:51:03;;;;;;;;;30.75;23.75;;;;;10.44;49.13;101287.63;5055768;28;45581;-78
2022/03/10 04:53:29;;;;;;;;;32.25;31.00;;;;;10.43;49.09;101290.34;5055566;28;45756;-78
2022/03/10 04:59:15;;;;;;;;;34.50;30.75;;;;;10.38;49.18;101301.09;5054891;28;46263;-77
2022/03/10 05:01:41;;;;;;;;;32.25;28.75;;;;;10.37;49.44;101291.53;5055629;28;45653;-77
2022/03/10 05:04:06;;;;;;;;;34.75;30.75;;;;;10.37;49.48;101291.53;5055429;28;45619;-76
2022/03/10 05:06:31;;;;;;;;;35.50;29.00;;;;;10.37;49.48;101295.94;5055151;28;47468;-75
2022/03/10 05:08:57;;;;;;;;;33.00;29.00;;;;;10.35;49.47;101296.03;5055314;28;45809;-75
2022/03/10 05:14:44;;;;;;;;;35.25;28.25;;;;;10.31;49.44;101291.91;5055234;28;45746;-77
2022/03/10 05:17:09;;;;;;;;;32.75;26.50;;;;;10.30;49.75;101284.16;5055434;28;46551;-77
2022/03/10 05:19:35;;;;;;;;;27.50;27.50;;;;;10.25;49.59;101281.81;5054978;28;46374;-75
2022/03/10 05:22:00;;;;;;;;;38.00;32.75;;;;;10.26;49.77;101280.84;5037166;28;45894;-76
2022/03/10 05:24:25;;;;;;;;;31.00;29.50;;;;;10.25;49.61;101288.81;5055405;28;45580;-77
2022/03/10 05:26:51;;;;;;;;;37.00;28.00;;;;;10.23;49.75;101285.44;5055367;28;46399;-74
2022/03/10 05:29:16;;;;;;;;;28.75;27.75;;;;;10.23;49.89;101281.06;5055269;28;46631;-77
2022/03/10 05:31:41;;;;;;;;;31.75;28.25;;;;;10.18;49.93;101277.00;5055244;28;45618;-78
2022/03/10 05:34:07;;;;;;;;;43.00;33.00;;;;;10.20;50.08;101277.78;5054989;28;45642;-78
2022/03/10 05:36:34;;;;;;;;;33.75;31.00;;;;;10.16;50.10;101279.72;5054881;28;45670;-77
2022/03/10 05:39:00;;;;;;;;;32.25;28.75;;;;;10.15;50.31;101282.41;5055005;28;46368;-73
2022/03/10 05:44:47;;;;;;;;;37.50;31.75;;;;;10.09;49.93;101296.69;5054949;28;45611;-75
2022/03/10 05:47:12;;;;;;;;;32.75;30.50;;;;;10.06;50.21;101295.09;5054853;28;47019;-76
2022/03/10 05:49:38;;;;;;;;;33.50;27.25;;;;;10.01;50.68;101291.06;5036441;28;46240;-76
2022/03/10 05:52:04;;;;;;;;;32.25;28.00;;;;;10.01;50.61;101285.81;5036544;28;45639;-78
2022/03/10 05:54:29;;;;;;;;;31.75;28.50;;;;;9.96;50.85;101282.63;5054772;28;45715;-79
2022/03/10 05:56:55;;;;;;;;;33.25;26.75;;;;;9.95;50.37;101288.78;5054701;28;45625;-79
2022/03/10 05:59:21;;;;;;;;;33.75;26.25;;;;;9.90;50.55;101283.81;5052091;28;46461;-76
2022/03/10 06:01:49;;;;;;;;;28.25;26.50;;;;;9.91;50.81;101295.97;5054900;28;45881;-79
2022/03/10 06:04:14;;;;;;;;;32.50;29.75;;;;;9.90;50.66;101293.44;5036217;28;45830;-76
2022/03/10 06:06:40;;;;;;;;;35.25;29.75;;;;;9.86;50.75;101298.00;5054179;28;45609;-80
2022/03/10 06:09:05;;;;;;;;;31.50;28.25;;;;;9.84;50.81;101294.63;5054836;28;45717;-78
2022/03/10 06:14:58;;;;;;;;;32.25;28.75;;;;;9.87;51.07;101288.41;5054534;28;45639;-74
2022/03/10 06:17:23;;;;;;;;;30.00;26.25;;;;;9.84;51.23;101294.63;5054548;28;45890;-75
2022/03/10 06:19:49;;;;;;;;;33.00;29.75;;;;;9.82;51.05;101296.50;5054514;28;46458;-77
2022/03/10 06:22:18;;;;;;;;;36.75;30.00;;;;;9.82;51.11;101293.91;5054234;28;45579;-75
2022/03/10 06:24:45;;;;;;;;;32.75;27.25;;;;;9.83;51.05;101287.69;5053706;28;45554;-78
2022/03/10 06:27:11;;;;;;;;;34.75;26.00;;;;;9.82;51.19;101296.50;5054453;28;45586;-79
2022/03/10 06:29:41;;;;;;;;;40.50;33.50;;;;;9.80;51.42;101297.50;5054379;28;46123;-78
2022/03/10 06:32:06;;;;;;;;;33.00;27.50;;;;;9.80;51.31;101300.97;5054478;28;45847;-78
2022/03/10 06:34:32;;;;;;;;;28.50;26.25;;;;;9.74;51.50;101293.47;5054308;28;45563;-77
2022/03/10 06:36:57;;;;;;;;;38.75;31.25;;;;;9.77;51.44;101297.69;5054328;28;45633;-78
2022/03/10 06:39:23;;;;;;;;;27.25;25.50;;;;;9.80;51.31;101306.22;5054171;28;46353;-79
2022/03/10 06:45:10;;;;;;;;;30.50;26.25;;;;;9.79;51.75;101307.13;5054119;28;45524;-77
2022/03/10 06:47:35;;;;;;;;;27.00;22.00;;;;;9.78;51.91;101308.06;5054211;28;45743;-76
2022/03/10 06:50:01;;;;;;;;;32.75;27.25;;;;;9.74;52.12;101303.09;5053990;28;45433;-78
2022/03/10 06:52:31;;;;;;;;;39.00;30.75;;;;;9.76;52.11;101303.84;5053476;28;45684;-76
2022/03/10 06:54:56;;;;;;;;;34.00;29.25;;;;;9.75;51.98;101320.47;5053776;28;45586;-79
2022/03/10 06:57:21;;;;;;;;;32.50;28.75;;;;;9.75;52.19;101307.41;5035708;28;47049;-80
2022/03/10 06:59:47;;;;;;;;;41.50;31.25;;;;;9.72;52.21;101308.41;5053445;28;45603;-78
2022/03/10 07:02:15;;;;;;;;;31.00;28.50;;;;;9.73;52.39;101311.88;5053807;28;45712;-78
2022/03/10 07:04:40;;;;;;;;;34.50;28.75;;;;;9.72;52.48;101316.25;5052230;28;45460;-78
2022/03/10 07:07:06;;;;;;;;;35.25;33.00;;;;;9.74;52.09;101321.41;5053593;28;45537;-78
2022/03/10 07:09:31;;;;;;;;;39.50;31.50;;;;;9.75;52.53;101315.25;5052228;28;47061;-79
2022/03/10 07:15:18;;;;;;;;;31.50;28.50;;;;;9.76;52.86;101328.25;5053812;28;45626;-79
2022/03/10 07:17:43;;;;;;;;;38.75;31.50;;;;;9.76;52.71;101327.41;5053616;28;46475;-79
2022/03/10 07:20:09;;;;;;;;;44.75;37.75;;;;;9.77;53.00;101332.53;5053398;28;46386;-80
2022/03/10 07:22:35;;;;;;;;;33.25;31.00;;;;;9.78;52.51;101318.53;5053509;28;45454;-76
2022/03/10 07:25:01;;;;;;;;;39.75;29.75;;;;;9.81;52.64;101323.59;5053342;28;45541;-77
2022/03/10 07:27:27;;;;;;;;;33.50;28.00;;;;;9.84;52.75;101331.28;5052625;28;46005;-79
2022/03/10 07:29:52;;;;;;;;;35.00;29.50;;;;;9.85;53.01;101329.50;5053320;28;46462;-78
2022/03/10 07:32:18;;;;;;;;;30.50;27.00;;;;;9.84;52.93;101326.03;5053221;28;45588;-75
2022/03/10 07:34:47;;;;;;;;;37.50;35.75;;;;;9.91;52.96;101332.63;5054380;28;45705;-78
2022/03/10 07:37:15;;;;;;;;;34.25;28.50;;;;;9.94;53.16;101326.34;5056626;28;47741;-80
2022/03/10 07:39:41;;;;;;;;;34.00;30.25;;;;;9.96;52.95;101334.97;5056844;28;46083;-77
2022/03/10 07:45:28;;;;;;;;;33.00;30.25;;;;;10.02;53.16;101337.25;5056773;28;45579;-79
2022/03/10 07:47:55;;;;;;;;;34.00;30.25;;;;;10.01;53.12;101331.16;5056606;28;46731;-76
2022/03/10 07:50:23;;;;;;;;;32.50;31.00;;;;;10.06;53.05;101339.59;5055782;28;46692;-79
2022/03/10 07:52:48;;;;;;;;;37.50;31.25;;;;;10.08;53.15;101334.28;5056468;28;45682;-77
2022/03/10 07:55:13;;;;;;;;;35.00;30.75;;;;;10.09;53.00;101334.16;5038587;28;46434;-75
2022/03/10 07:57:41;;;;;;;;;37.25;32.50;;;;;10.14;53.07;101343.56;5056896;28;45949;-75
2022/03/10 08:00:07;;;;;;;;;31.00;26.25;;;;;10.18;53.19;101339.84;5056248;28;45618;-78
2022/03/10 08:02:33;;;;;;;;;35.25;30.75;;;;;10.18;52.74;101342.47;5056254;28;45661;-75
2022/03/10 08:04:58;;;;;;;;;28.25;26.50;;;;;10.21;52.95;101340.50;5056641;28;45613;-78
2022/03/10 08:07:24;;;;;;;;;31.75;31.00;;;;;10.26;52.91;101345.47;5056474;28;45598;-78
2022/03/10 08:09:49;;;;;;;;;38.00;32.50;;;;;10.28;52.91;101344.47;5056238;28;45569;-79
2022/03/10 08:15:36;;;;;;;;;29.75;27.00;;;;;10.32;52.97;101329.41;5056467;28;45670;-79
2022/03/10 08:18:03;;;;;;;;;30.50;26.00;;;;;10.35;52.76;101342.34;5056185;28;46354;-80
2022/03/10 08:20:29;;;;;;;;;30.75;28.50;;;;;10.38;52.92;101340.38;5056304;28;46119;-77
2022/03/10 08:22:55;;;;;;;;;30.75;28.25;;;;;10.37;52.92;101335.22;5055713;28;45581;-77
2022/03/10 08:25:21;;;;;;;;;39.00;28.75;;;;;10.44;52.81;101341.78;5056527;28;45578;-80
2022/03/10 08:31:10;;;;;;;;;35.25;31.00;;;;;10.51;52.84;101341.34;5056249;28;46273;-78
2022/03/10 08:33:36;;;;;;;;;34.50;29.00;;;;;10.55;52.88;101333.31;5056075;28;45870;-79
2022/03/10 08:36:03;;;;;;;;;33.50;31.25;;;;;10.60;52.78;101336.50;5056344;28;45539;-79
2022/03/10 08:38:30;;;;;;;;;34.25;29.50;;;;;10.63;52.98;101339.78;5056034;28;45748;-78
2022/03/10 08:40:55;;;;;;;;;37.25;32.25;;;;;10.67;52.73;101335.19;5055861;28;46163;-74
2022/03/10 08:43:23;;;;;;;;;30.75;29.00;;;;;10.70;52.91;101329.75;5055877;28;45582;-79
2022/03/10 08:45:50;;;;;;;;;36.25;31.75;;;;;10.74;52.73;101318.19;5055225;28;45725;-77
2022/03/10 08:48:16;;;;;;;;;38.50;28.00;;;;;10.77;52.66;101318.00;5037468;28;47479;-78
2022/03/10 08:50:41;;;;;;;;;35.75;32.25;;;;;10.78;52.67;101315.28;5055061;28;46192;-77
2022/03/10 08:53:07;;;;;;;;;34.75;28.00;;;;;10.84;52.57;101321.94;5055157;28;45526;-79
2022/03/10 08:55:33;;;;;;;;;35.00;31.75;;;;;10.89;52.66;101325.97;5055545;28;45529;-79
2022/03/10 09:01:33;;;;;;;;;33.00;28.75;;;;;10.98;52.64;101323.69;5054114;28;46061;-78
2022/03/10 09:03:59;;;;;;;;;31.25;28.25;;;;;11.04;52.55;101323.31;5055782;28;45533;-78
2022/03/10 09:06:24;;;;;;;;;33.00;31.00;;;;;11.07;52.41;101316.09;5037628;28;45855;-77
2022/03/10 09:08:50;;;;;;;;;28.50;27.00;;;;;11.12;52.52;101321.09;5055526;28;46509;-77
2022/03/10 09:11:16;;;;;;;;;29.25;25.75;;;;;11.19;52.47;101320.59;5055325;28;46284;-81
2022/03/10 09:13:48;;;;;;;;;33.25;29.75;;;;;11.20;52.59;101317.03;5055562;28;45563;-81
2022/03/10 09:16:17;;;;;;;;;35.00;28.00;;;;;11.29;52.54;101313.00;5055374;28;45761;-81
2022/03/10 09:18:45;;;;;;;;;30.75;26.50;;;;;11.39;52.44;101326.41;5055158;28;45764;-80
2022/03/10 09:21:11;;;;;;;;;32.75;31.00;;;;;11.33;52.53;101306.63;5055097;28;45592;-79
2022/03/10 09:23:36;;;;;;;;;25.75;24.75;;;;;11.41;52.32;101306.13;5055093;28;45524;-80
2022/03/10 09:26:02;;;;;;;;;28.75;26.50;;;;;11.47;52.19;101311.00;5054831;28;45583;-84
2022/03/10 09:28:28;;;;;;;;;29.00;26.00;;;;;11.56;52.04;101307.78;5055288;28;45687;-80
2022/03/10 09:30:53;;;;;;;;;31.00;25.00;;;;;11.57;52.21;101299.81;5054922;28;46290;-79
2022/03/10 09:33:18;;;;;;;;;26.50;25.00;;;;;11.60;51.96;101297.00;5055535;28;45703;-79
2022/03/10 09:35:44;;;;;;;;;31.00;27.00;;;;;11.69;51.88;101299.03;5057344;28;45884;-80
2022/03/10 09:38:09;;;;;;;;;28.50;25.00;;;;;11.83;51.83;101313.06;5055355;28;47800;-82
2022/03/10 09:40:35;;;;;;;;;29.00;26.25;;;;;11.82;52.01;101303.53;5056810;28;45670;-83
2022/03/10 09:46:22;;;;;;;;;24.00;21.50;;;;;12.03;51.83;101317.88;5056343;28;45644;-81
2022/03/10 09:48:48;;;;;;;;;26.50;25.25;;;;;12.10;51.87;101311.25;5057567;28;45651;-83
2022/03/10 09:51:14;;;;;;;;;29.75;25.75;;;;;12.14;51.82;101304.88;5057005;28;45591;-81
2022/03/10 09:53:39;;;;;;;;;27.50;24.25;;;;;12.24;51.79;101316.47;5055533;28;45927;-82
2022/03/10 09:56:05;;;;;;;;;25.75;25.00;;;;;12.26;51.81;101292.69;5037740;28;45626;-79
2022/03/10 10:01:54;;;;;;;;;23.50;22.00;;;;;12.42;51.31;101302.06;5053603;28;45780;-78
2022/03/10 10:04:20;;;;;;;;;24.75;22.00;;;;;12.51;51.50;101300.63;5054297;28;45886;-76
2022/03/10 10:07:02;;;;;;;;;29.50;24.75;;;;;12.60;51.56;101306.09;5054635;28;45677;-79
2022/03/10 10:09:53;;;;;;;;;23.75;21.75;;;;;12.68;51.14;101310.81;5053302;28;47754;-78
2022/03/10 10:12:22;;;;;;;;;32.50;24.00;;;;;12.70;51.14;101297.56;5054396;28;46239;-81
2022/03/10 10:14:48;;;;;;;;;25.75;22.25;;;;;12.70;51.10;101290.50;5054567;28;45920;-81
2022/03/10 10:17:15;;;;;;;;;23.25;21.00;;;;;12.85;51.12;101302.59;5054921;28;45674;-83
2022/03/10 10:19:42;;;;;;;;;21.75;20.75;;;;;12.89;50.69;101292.72;5054288;28;46636;-80
2022/03/10 10:22:20;;;;;;;;;23.50;19.00;;;;;12.94;50.62;101290.59;5054113;28;46312;-81
2022/03/10 10:24:54;;;;;;;;;22.25;21.25;;;;;13.00;50.87;101290.19;5036133;28;45852;-82
2022/03/10 10:27:22;;;;;;;;;23.50;21.25;;;;;13.07;50.54;101286.16;5054389;28;45729;-79
2022/03/10 10:29:56;;;;;;;;;22.25;19.75;;;;;13.14;50.43;101290.06;5053945;28;46530;-83
2022/03/10 10:32:34;;;;;;;;;26.50;23.00;;;;;13.20;50.55;101283.53;5054435;28;46227;-82
2022/03/10 10:35:00;;;;;;;;;21.75;19.00;;;;;13.28;50.20;101282.03;5052955;28;46099;-82
2022/03/10 10:37:26;;;;;;;;;26.75;23.75;;;;;13.31;50.06;101267.81;5054937;28;45789;-78
2022/03/10 10:39:53;;;;;;;;;19.25;19.00;;;;;13.37;50.15;101272.66;5054092;28;45568;-78
2022/03/10 10:42:18;;;;;;;;;22.50;21.25;;;;;13.40;50.09;101261.88;5035549;28;47561;-80
2022/03/10 10:44:44;;;;;;;;;21.50;20.00;;;;;13.42;49.93;101252.94;5054059;28;45654;-80
2022/03/10 10:47:09;;;;;;;;;20.25;18.50;;;;;13.54;50.43;101260.91;5035735;28;45568;-79
2022/03/10 10:49:35;;;;;;;;;18.50;15.50;;;;;13.60;50.38;101249.94;5052790;28;46671;-79
2022/03/10 10:52:01;;;;;;;;;19.50;17.00;;;;;13.67;49.72;101259.03;5053531;28;46259;-79
2022/03/10 10:54:29;;;;;;;;;17.50;16.75;;;;;13.65;49.77;101235.47;5053918;28;45587;-79
2022/03/10 11:03:52;;;;;;;;;18.75;17.00;;;;;13.97;49.86;101240.13;5032751;28;46175;-75
2022/03/10 11:06:19;;;;;;;;;18.25;16.00;;;;;14.03;49.54;101234.41;5031750;28;45465;-75
2022/03/10 11:08:45;;;;;;;;;17.75;16.00;;;;;14.07;49.90;101238.47;5033090;28;45832;-83
2022/03/10 11:11:12;;;;;;;;;16.00;14.75;;;;;14.12;49.33;101231.06;5033603;28;46809;-81
2022/03/10 11:16:59;;;;;;;;;19.00;14.00;;;;;14.26;49.50;101220.28;5033538;28;45825;-81
2022/03/10 11:19:26;;;;;;;;;18.00;17.00;;;;;14.29;49.20;101213.00;5033697;28;45718;-80
2022/03/10 11:22:06;;;;;;;;;13.75;13.75;;;;;14.38;49.29;101211.47;5033844;28;45789;-80
2022/03/10 11:24:37;;;;;;;;;14.50;13.00;;;;;14.48;49.14;101204.53;5033516;28;45983;-81
2022/03/10 11:33:41;;;;;;;;;11.50;10.00;;;;;14.73;48.95;101192.91;5033191;28;45527;-80
2022/03/10 11:36:25;;;;;;;;;13.00;12.00;;;;;14.77;48.74;101191.72;5033304;28;45680;-79
2022/03/10 11:39:02;;;;;;;;;15.00;12.75;;;;;14.92;48.63;101200.19;5033271;28;45847;-84
2022/03/10 11:41:40;;;;;;;;;15.00;12.00;;;;;14.94;48.63;101187.72;5033492;28;45610;-79
2022/03/10 11:44:07;;;;;;;;;12.00;11.00;;;;;15.05;48.33;101185.06;5033069;28;46837;-82
2022/03/10 11:46:33;;;;;;;;;16.50;14.25;;;;;15.01;48.26;101173.06;5033006;28;46015;-81
2022/03/10 11:49:15;;;;;;;;;12.00;11.75;;;;;15.15;48.50;101186.00;5033225;28;45774;-81
2022/03/10 11:51:43;;;;;;;;;16.00;14.00;;;;;15.21;48.47;101179.38;5033179;28;45511;-82
2022/03/10 11:54:10;;;;;;;;;14.25;13.25;;;;;15.23;48.41;101170.38;5032931;28;45830;-80
2022/03/10 11:56:44;;;;;;;;;15.00;14.00;;;;;15.31;48.14;101175.03;5033193;28;46026;-81
2022/03/10 11:59:23;;;;;;;;;13.50;12.75;;;;;15.36;47.87;101175.50;5033005;28;45550;-82
2022/03/10 12:01:49;;;;;;;;;16.25;13.75;;;;;15.39;47.95;101162.03;5036335;28;45877;-80
2022/03/10 12:04:21;;;;;;;;;14.25;13.25;;;;;15.48;47.65;101162.13;5052920;28;46535;-79
2022/03/10 12:06:57;;;;;;;;;14.25;13.25;;;;;15.53;47.91;101154.69;5052961;28;45585;-80
2022/03/10 12:09:25;;;;;;;;;13.50;13.00;;;;;15.60;47.40;101151.53;5053115;28;45624;-80
2022/03/10 12:11:51;;;;;;;;;16.50;14.25;;;;;15.56;47.64;101135.09;5053249;28;45562;-86
